sensor_id;sensor_type;location;lat;lon;timestamp;temperature;humidity
4820;DHT22;2424;49.696;6.630;2024-01-10T00:04:00;-4.60;99.90
4820;DHT22;2424;49.696;6.630;2024-01-10T00:09:21;-4.50;99.90
4820;DHT22;2424;49.696;6.630;2024-01-10T00:14:44;-4.60;99.90
4820;DHT22;2424;49.696;6.630;2024-01-10T00:20:06;-4.60;99.90
4820;DHT22;2424;49.696;6.630;2024-01-10T00:25:26;-4.60;99.90
4820;DHT22;2424;49.696;6.630;2024-01-10T00:30:48;-4.60;99.90
4820;DHT22;2424;49.696;6.630;2024-01-10T00:36:09;-4.70;99.90
4820;DHT22;2424;49.696;6.630;2024-01-10T00:41:29;-4.70;99.90
4820;DHT22;2424;49.696;6.630;2024-01-10T00:46:51;-4.70;99.90
4820;DHT22;2424;49.696;6.630;2024-01-10T00:52:12;-4.70;99.90
4820;DHT22;2424;49.696;6.630;2024-01-10T00:57:33;-4.70;99.90
4820;DHT22;2424;49.696;6.630;2024-01-10T01:02:55;-4.70;99.90
4820;DHT22;2424;49.696;6.630;2024-01-10T01:08:15;-4.70;99.90
4820;DHT22;2424;49.696;6.630;2024-01-10T01:13:35;-4.70;99.90
4820;DHT22;2424;49.696;6.630;2024-01-10T01:18:57;-4.70;99.90
4820;DHT22;2424;49.696;6.630;2024-01-10T01:24:18;-4.90;99.90
4820;DHT22;2424;49.696;6.630;2024-01-10T01:29:39;-4.90;99.90
4820;DHT22;2424;49.696;6.630;2024-01-10T01:35:00;-4.80;99.90
4820;DHT22;2424;49.696;6.630;2024-01-10T01:40:21;-4.80;99.90
4820;DHT22;2424;49.696;6.630;2024-01-10T01:45:42;-4.80;99.90
4820;DHT22;2424;49.696;6.630;2024-01-10T01:51:06;-4.80;99.90
4820;DHT22;2424;49.696;6.630;2024-01-10T01:56:27;-4.70;99.90
4820;DHT22;2424;49.696;6.630;2024-01-10T02:01:47;-4.70;99.90
4820;DHT22;2424;49.696;6.630;2024-01-10T02:07:11;-4.70;99.90
4820;DHT22;2424;49.696;6.630;2024-01-10T02:12:31;-4.80;99.90
4820;DHT22;2424;49.696;6.630;2024-01-10T02:17:52;-4.90;99.90
4820;DHT22;2424;49.696;6.630;2024-01-10T02:23:14;-5.00;99.90
4820;DHT22;2424;49.696;6.630;2024-01-10T02:28:37;-5.00;99.90
4820;DHT22;2424;49.696;6.630;2024-01-10T02:33:57;-4.90;99.90
4820;DHT22;2424;49.696;6.630;2024-01-10T02:39:18;-5.00;99.90
4820;DHT22;2424;49.696;6.630;2024-01-10T02:44:40;-5.00;99.90
4820;DHT22;2424;49.696;6.630;2024-01-10T02:50:00;-5.00;99.90
4820;DHT22;2424;49.696;6.630;2024-01-10T02:55:21;-5.00;99.90
4820;DHT22;2424;49.696;6.630;2024-01-10T03:00:43;-5.10;99.90
4820;DHT22;2424;49.696;6.630;2024-01-10T03:06:03;-5.00;99.90
4820;DHT22;2424;49.696;6.630;2024-01-10T03:11:24;-5.00;99.90
4820;DHT22;2424;49.696;6.630;2024-01-10T03:16:47;-4.90;99.90
4820;DHT22;2424;49.696;6.630;2024-01-10T03:22:07;-5.10;99.90
4820;DHT22;2424;49.696;6.630;2024-01-10T03:27:28;-5.10;99.90
4820;DHT22;2424;49.696;6.630;2024-01-10T03:32:50;-5.10;99.90
4820;DHT22;2424;49.696;6.630;2024-01-10T03:38:11;-5.00;99.90
4820;DHT22;2424;49.696;6.630;2024-01-10T03:43:32;-5.10;99.90
4820;DHT22;2424;49.696;6.630;2024-01-10T03:48:54;-5.00;99.90
4820;DHT22;2424;49.696;6.630;2024-01-10T03:54:14;-5.00;99.90
4820;DHT22;2424;49.696;6.630;2024-01-10T03:59:35;-5.00;99.90
4820;DHT22;2424;49.696;6.630;2024-01-10T04:04:57;-5.10;99.90
4820;DHT22;2424;49.696;6.630;2024-01-10T04:10:18;-5.20;99.90
4820;DHT22;2424;49.696;6.630;2024-01-10T04:15:38;-5.30;99.90
4820;DHT22;2424;49.696;6.630;2024-01-10T04:21:00;-5.30;99.90
4820;DHT22;2424;49.696;6.630;2024-01-10T04:26:21;-5.30;99.90
4820;DHT22;2424;49.696;6.630;2024-01-10T04:31:42;-5.30;99.90
4820;DHT22;2424;49.696;6.630;2024-01-10T04:37:04;-5.20;99.90
4820;DHT22;2424;49.696;6.630;2024-01-10T04:42:26;-5.20;99.90
4820;DHT22;2424;49.696;6.630;2024-01-10T04:47:46;-5.20;99.90
4820;DHT22;2424;49.696;6.630;2024-01-10T04:53:08;-5.30;99.90
4820;DHT22;2424;49.696;6.630;2024-01-10T04:58:29;-5.30;99.90
4820;DHT22;2424;49.696;6.630;2024-01-10T05:03:52;-5.40;99.90
4820;DHT22;2424;49.696;6.630;2024-01-10T05:09:13;-5.30;99.90
4820;DHT22;2424;49.696;6.630;2024-01-10T05:14:34;-5.30;99.90
4820;DHT22;2424;49.696;6.630;2024-01-10T05:19:55;-5.20;99.90
4820;DHT22;2424;49.696;6.630;2024-01-10T05:25:16;-5.20;99.90
4820;DHT22;2424;49.696;6.630;2024-01-10T05:30:37;-5.40;99.90
4820;DHT22;2424;49.696;6.630;2024-01-10T05:35:58;-5.30;99.90
4820;DHT22;2424;49.696;6.630;2024-01-10T05:41:20;-5.30;99.90
4820;DHT22;2424;49.696;6.630;2024-01-10T05:46:40;-5.20;99.90
4820;DHT22;2424;49.696;6.630;2024-01-10T05:52:03;-5.20;99.90
4820;DHT22;2424;49.696;6.630;2024-01-10T05:57:25;-5.20;99.90
4820;DHT22;2424;49.696;6.630;2024-01-10T06:02:45;-5.20;99.90
4820;DHT22;2424;49.696;6.630;2024-01-10T06:08:06;-5.20;99.90
4820;DHT22;2424;49.696;6.630;2024-01-10T06:13:28;-5.10;99.90
4820;DHT22;2424;49.696;6.630;2024-01-10T06:18:49;-5.10;99.90
4820;DHT22;2424;49.696;6.630;2024-01-10T06:24:09;-5.10;99.90
4820;DHT22;2424;49.696;6.630;2024-01-10T06:29:31;-5.10;99.90
4820;DHT22;2424;49.696;6.630;2024-01-10T06:34:52;-5.10;99.90
4820;DHT22;2424;49.696;6.630;2024-01-10T06:40:13;-5.10;99.90
4820;DHT22;2424;49.696;6.630;2024-01-10T06:45:35;-5.10;99.90
4820;DHT22;2424;49.696;6.630;2024-01-10T06:50:56;-5.20;99.90
4820;DHT22;2424;49.696;6.630;2024-01-10T06:56:17;-5.30;99.90
4820;DHT22;2424;49.696;6.630;2024-01-10T07:01:39;-5.30;99.90
4820;DHT22;2424;49.696;6.630;2024-01-10T07:07:00;-5.30;99.90
4820;DHT22;2424;49.696;6.630;2024-01-10T07:12:21;-5.30;99.90
4820;DHT22;2424;49.696;6.630;2024-01-10T07:17:43;-5.30;99.90
4820;DHT22;2424;49.696;6.630;2024-01-10T07:23:04;-5.30;99.90
4820;DHT22;2424;49.696;6.630;2024-01-10T07:28:24;-5.20;99.90
4820;DHT22;2424;49.696;6.630;2024-01-10T07:33:46;-5.20;99.90
4820;DHT22;2424;49.696;6.630;2024-01-10T07:39:07;-5.20;99.90
4820;DHT22;2424;49.696;6.630;2024-01-10T07:44:28;-5.20;99.90
4820;DHT22;2424;49.696;6.630;2024-01-10T07:49:50;-5.20;99.90
4820;DHT22;2424;49.696;6.630;2024-01-10T07:55:11;-5.20;99.90
4820;DHT22;2424;49.696;6.630;2024-01-10T08:00:32;-5.20;99.90
4820;DHT22;2424;49.696;6.630;2024-01-10T08:05:54;-5.20;99.90
4820;DHT22;2424;49.696;6.630;2024-01-10T08:11:14;-5.10;99.90
4820;DHT22;2424;49.696;6.630;2024-01-10T08:16:35;-5.10;99.90
4820;DHT22;2424;49.696;6.630;2024-01-10T08:21:57;-5.10;99.90
4820;DHT22;2424;49.696;6.630;2024-01-10T08:27:17;-5.10;99.90
4820;DHT22;2424;49.696;6.630;2024-01-10T08:32:38;-4.90;99.90
4820;DHT22;2424;49.696;6.630;2024-01-10T08:38:01;-4.90;99.90
4820;DHT22;2424;49.696;6.630;2024-01-10T08:43:23;-5.00;99.90
4820;DHT22;2424;49.696;6.630;2024-01-10T08:48:44;-4.90;99.90
4820;DHT22;2424;49.696;6.630;2024-01-10T08:54:08;-4.80;99.90
4820;DHT22;2424;49.696;6.630;2024-01-10T08:59:29;-4.70;99.90
4820;DHT22;2424;49.696;6.630;2024-01-10T09:04:50;-4.70;99.90
4820;DHT22;2424;49.696;6.630;2024-01-10T09:10:12;-4.60;99.90
4820;DHT22;2424;49.696;6.630;2024-01-10T09:15:33;-4.60;99.90
4820;DHT22;2424;49.696;6.630;2024-01-10T09:20:53;-4.40;99.90
4820;DHT22;2424;49.696;6.630;2024-01-10T09:26:15;-4.40;99.90
4820;DHT22;2424;49.696;6.630;2024-01-10T09:31:36;-4.30;99.90
4820;DHT22;2424;49.696;6.630;2024-01-10T09:36:57;-4.30;99.90
4820;DHT22;2424;49.696;6.630;2024-01-10T09:42:18;-4.20;99.90
4820;DHT22;2424;49.696;6.630;2024-01-10T09:47:40;-4.10;99.90
4820;DHT22;2424;49.696;6.630;2024-01-10T09:53:06;-4.00;99.90
4820;DHT22;2424;49.696;6.630;2024-01-10T09:58:28;-3.80;99.90
4820;DHT22;2424;49.696;6.630;2024-01-10T10:03:49;-3.70;99.90
4820;DHT22;2424;49.696;6.630;2024-01-10T10:09:10;-3.70;99.90
4820;DHT22;2424;49.696;6.630;2024-01-10T10:14:33;-3.70;99.90
4820;DHT22;2424;49.696;6.630;2024-01-10T10:20:03;-3.60;99.90
4820;DHT22;2424;49.696;6.630;2024-01-10T10:25:26;-3.60;99.90
4820;DHT22;2424;49.696;6.630;2024-01-10T10:30:48;-3.60;99.90
4820;DHT22;2424;49.696;6.630;2024-01-10T10:36:13;-3.40;99.90
4820;DHT22;2424;49.696;6.630;2024-01-10T10:41:35;-3.40;99.90
4820;DHT22;2424;49.696;6.630;2024-01-10T10:47:00;-3.20;99.90
4820;DHT22;2424;49.696;6.630;2024-01-10T10:52:24;-3.20;99.90
4820;DHT22;2424;49.696;6.630;2024-01-10T10:57:47;-3.10;99.90
4820;DHT22;2424;49.696;6.630;2024-01-10T11:03:10;-3.10;99.90
4820;DHT22;2424;49.696;6.630;2024-01-10T11:08:35;-3.00;99.90
4820;DHT22;2424;49.696;6.630;2024-01-10T11:14:07;-2.80;99.90
4820;DHT22;2424;49.696;6.630;2024-01-10T11:19:51;-2.70;99.90
4820;DHT22;2424;49.696;6.630;2024-01-10T11:25:14;-2.60;99.90
4820;DHT22;2424;49.696;6.630;2024-01-10T11:30:38;-2.40;99.90
4820;DHT22;2424;49.696;6.630;2024-01-10T11:36:12;-2.20;99.90
4820;DHT22;2424;49.696;6.630;2024-01-10T11:41:35;-2.00;99.90
4820;DHT22;2424;49.696;6.630;2024-01-10T11:46:58;-1.80;99.90
4820;DHT22;2424;49.696;6.630;2024-01-10T11:52:21;-1.80;99.90
4820;DHT22;2424;49.696;6.630;2024-01-10T11:57:42;-1.70;99.90
4820;DHT22;2424;49.696;6.630;2024-01-10T12:03:03;-1.60;99.90
4820;DHT22;2424;49.696;6.630;2024-01-10T12:08:25;-1.50;99.90
4820;DHT22;2424;49.696;6.630;2024-01-10T12:13:45;-1.40;99.90
4820;DHT22;2424;49.696;6.630;2024-01-10T12:19:07;-1.20;99.90
4820;DHT22;2424;49.696;6.630;2024-01-10T12:24:28;-1.00;99.90
4820;DHT22;2424;49.696;6.630;2024-01-10T12:29:51;-0.80;99.90
4820;DHT22;2424;49.696;6.630;2024-01-10T12:35:13;-0.60;99.90
4820;DHT22;2424;49.696;6.630;2024-01-10T12:40:39;0.40;99.90
4820;DHT22;2424;49.696;6.630;2024-01-10T12:46:04;1.30;99.90
4820;DHT22;2424;49.696;6.630;2024-01-10T12:51:25;2.10;99.90
4820;DHT22;2424;49.696;6.630;2024-01-10T12:56:47;2.10;99.90
4820;DHT22;2424;49.696;6.630;2024-01-10T13:02:07;2.00;99.90
4820;DHT22;2424;49.696;6.630;2024-01-10T13:07:28;1.50;99.90
4820;DHT22;2424;49.696;6.630;2024-01-10T13:12:52;1.50;99.90
4820;DHT22;2424;49.696;6.630;2024-01-10T13:18:13;1.40;99.90
4820;DHT22;2424;49.696;6.630;2024-01-10T13:23:34;1.20;99.90
4820;DHT22;2424;49.696;6.630;2024-01-10T13:28:57;1.40;99.90
4820;DHT22;2424;49.696;6.630;2024-01-10T13:34:18;1.60;99.90
4820;DHT22;2424;49.696;6.630;2024-01-10T13:39:41;1.60;99.90
4820;DHT22;2424;49.696;6.630;2024-01-10T13:45:04;1.80;99.90
4820;DHT22;2424;49.696;6.630;2024-01-10T13:50:25;1.80;99.90
4820;DHT22;2424;49.696;6.630;2024-01-10T13:55:46;2.20;99.90
4820;DHT22;2424;49.696;6.630;2024-01-10T14:01:08;2.00;99.90
4820;DHT22;2424;49.696;6.630;2024-01-10T14:06:29;1.90;99.90
4820;DHT22;2424;49.696;6.630;2024-01-10T14:11:49;1.80;99.90
4820;DHT22;2424;49.696;6.630;2024-01-10T14:17:11;1.00;99.90
4820;DHT22;2424;49.696;6.630;2024-01-10T14:22:32;0.60;99.90
4820;DHT22;2424;49.696;6.630;2024-01-10T14:27:53;0.40;99.90
4820;DHT22;2424;49.696;6.630;2024-01-10T14:33:15;0.60;99.90
4820;DHT22;2424;49.696;6.630;2024-01-10T14:38:36;0.80;99.90
4820;DHT22;2424;49.696;6.630;2024-01-10T14:43:57;0.60;99.90
4820;DHT22;2424;49.696;6.630;2024-01-10T14:49:19;0.40;99.90
4820;DHT22;2424;49.696;6.630;2024-01-10T14:54:40;0.30;99.90
4820;DHT22;2424;49.696;6.630;2024-01-10T15:00:01;0.10;99.90
4820;DHT22;2424;49.696;6.630;2024-01-10T15:05:24;0.10;99.90
4820;DHT22;2424;49.696;6.630;2024-01-10T15:10:45;0.50;99.90
4820;DHT22;2424;49.696;6.630;2024-01-10T15:16:06;0.40;99.90
4820;DHT22;2424;49.696;6.630;2024-01-10T15:21:28;0.60;99.90
4820;DHT22;2424;49.696;6.630;2024-01-10T15:26:50;0.50;99.90
4820;DHT22;2424;49.696;6.630;2024-01-10T15:32:11;0.50;99.90
4820;DHT22;2424;49.696;6.630;2024-01-10T15:37:34;0.30;99.90
4820;DHT22;2424;49.696;6.630;2024-01-10T15:42:54;0.20;99.90
4820;DHT22;2424;49.696;6.630;2024-01-10T15:48:15;0.10;99.90
4820;DHT22;2424;49.696;6.630;2024-01-10T15:53:38;0.00;99.90
4820;DHT22;2424;49.696;6.630;2024-01-10T15:58:59;-0.10;99.90
4820;DHT22;2424;49.696;6.630;2024-01-10T16:04:19;-0.20;99.90
4820;DHT22;2424;49.696;6.630;2024-01-10T16:09:41;-0.20;99.90
4820;DHT22;2424;49.696;6.630;2024-01-10T16:15:02;-0.30;99.90
4820;DHT22;2424;49.696;6.630;2024-01-10T16:20:24;-0.40;99.90
4820;DHT22;2424;49.696;6.630;2024-01-10T16:25:46;-0.60;99.90
4820;DHT22;2424;49.696;6.630;2024-01-10T16:31:06;-0.60;99.90
4820;DHT22;2424;49.696;6.630;2024-01-10T16:36:27;-0.80;99.90
4820;DHT22;2424;49.696;6.630;2024-01-10T16:41:49;-0.90;99.90
4820;DHT22;2424;49.696;6.630;2024-01-10T16:47:10;-1.00;99.90
4820;DHT22;2424;49.696;6.630;2024-01-10T16:52:31;-1.10;99.90
4820;DHT22;2424;49.696;6.630;2024-01-10T16:57:53;-1.20;99.90
4820;DHT22;2424;49.696;6.630;2024-01-10T17:03:13;-1.40;99.90
4820;DHT22;2424;49.696;6.630;2024-01-10T17:08:34;-1.40;99.90
4820;DHT22;2424;49.696;6.630;2024-01-10T17:13:56;-1.50;99.90
4820;DHT22;2424;49.696;6.630;2024-01-10T17:19:17;-1.60;99.90
4820;DHT22;2424;49.696;6.630;2024-01-10T17:24:37;-1.70;99.90
4820;DHT22;2424;49.696;6.630;2024-01-10T17:29:59;-1.70;99.90
4820;DHT22;2424;49.696;6.630;2024-01-10T17:35:20;-1.80;99.90
4820;DHT22;2424;49.696;6.630;2024-01-10T17:40:40;-1.90;99.90
4820;DHT22;2424;49.696;6.630;2024-01-10T17:46:03;-1.90;99.90
4820;DHT22;2424;49.696;6.630;2024-01-10T17:51:24;-2.00;99.90
4820;DHT22;2424;49.696;6.630;2024-01-10T17:56:46;-2.10;99.90
4820;DHT22;2424;49.696;6.630;2024-01-10T18:02:08;-2.20;99.90
4820;DHT22;2424;49.696;6.630;2024-01-10T18:07:29;-2.20;99.90
4820;DHT22;2424;49.696;6.630;2024-01-10T18:12:49;-2.20;99.90
4820;DHT22;2424;49.696;6.630;2024-01-10T18:18:11;-2.20;99.90
4820;DHT22;2424;49.696;6.630;2024-01-10T18:23:32;-2.30;99.90
4820;DHT22;2424;49.696;6.630;2024-01-10T18:28:52;-2.40;99.90
4820;DHT22;2424;49.696;6.630;2024-01-10T18:34:14;-2.40;99.90
4820;DHT22;2424;49.696;6.630;2024-01-10T18:39:35;-2.40;99.90
4820;DHT22;2424;49.696;6.630;2024-01-10T18:44:56;-2.40;99.90
4820;DHT22;2424;49.696;6.630;2024-01-10T18:50:18;-2.40;99.90
4820;DHT22;2424;49.696;6.630;2024-01-10T18:55:38;-2.40;99.90
4820;DHT22;2424;49.696;6.630;2024-01-10T19:00:59;-2.40;99.90
4820;DHT22;2424;49.696;6.630;2024-01-10T19:06:20;-2.40;99.90
4820;DHT22;2424;49.696;6.630;2024-01-10T19:11:41;-2.50;99.90
4820;DHT22;2424;49.696;6.630;2024-01-10T19:17:02;-2.50;99.90
4820;DHT22;2424;49.696;6.630;2024-01-10T19:22:25;-2.50;99.90
4820;DHT22;2424;49.696;6.630;2024-01-10T19:27:47;-2.50;99.90
4820;DHT22;2424;49.696;6.630;2024-01-10T19:33:08;-2.50;99.90
4820;DHT22;2424;49.696;6.630;2024-01-10T19:38:30;-2.70;99.90
4820;DHT22;2424;49.696;6.630;2024-01-10T19:43:51;-2.70;99.90
4820;DHT22;2424;49.696;6.630;2024-01-10T19:49:12;-2.80;99.90
4820;DHT22;2424;49.696;6.630;2024-01-10T19:54:34;-2.90;99.90
4820;DHT22;2424;49.696;6.630;2024-01-10T19:59:56;-2.90;99.90
4820;DHT22;2424;49.696;6.630;2024-01-10T20:05:17;-3.00;99.90
4820;DHT22;2424;49.696;6.630;2024-01-10T20:10:39;-3.00;99.90
4820;DHT22;2424;49.696;6.630;2024-01-10T20:16:00;-3.10;99.90
4820;DHT22;2424;49.696;6.630;2024-01-10T20:21:22;-3.00;99.90
4820;DHT22;2424;49.696;6.630;2024-01-10T20:26:44;-3.20;99.90
4820;DHT22;2424;49.696;6.630;2024-01-10T20:32:04;-3.20;99.90
4820;DHT22;2424;49.696;6.630;2024-01-10T20:37:26;-3.30;99.90
4820;DHT22;2424;49.696;6.630;2024-01-10T20:42:48;-3.30;99.90
4820;DHT22;2424;49.696;6.630;2024-01-10T20:48:09;-3.30;99.90
4820;DHT22;2424;49.696;6.630;2024-01-10T20:53:31;-3.30;99.90
4820;DHT22;2424;49.696;6.630;2024-01-10T20:58:55;-3.40;99.90
4820;DHT22;2424;49.696;6.630;2024-01-10T21:04:15;-3.30;99.90
4820;DHT22;2424;49.696;6.630;2024-01-10T21:09:37;-3.40;99.90
4820;DHT22;2424;49.696;6.630;2024-01-10T21:14:59;-3.40;99.90
4820;DHT22;2424;49.696;6.630;2024-01-10T21:20:20;-3.50;99.90
4820;DHT22;2424;49.696;6.630;2024-01-10T21:25:41;-3.60;99.90
4820;DHT22;2424;49.696;6.630;2024-01-10T21:31:03;-3.60;99.90
4820;DHT22;2424;49.696;6.630;2024-01-10T21:36:24;-3.60;99.90
4820;DHT22;2424;49.696;6.630;2024-01-10T21:41:44;-3.60;99.90
4820;DHT22;2424;49.696;6.630;2024-01-10T21:47:06;-3.60;99.90
4820;DHT22;2424;49.696;6.630;2024-01-10T21:52:27;-3.70;99.90
4820;DHT22;2424;49.696;6.630;2024-01-10T21:57:49;-3.70;99.90
4820;DHT22;2424;49.696;6.630;2024-01-10T22:03:11;-3.80;99.90
4820;DHT22;2424;49.696;6.630;2024-01-10T22:08:32;-3.80;99.90
4820;DHT22;2424;49.696;6.630;2024-01-10T22:13:53;-3.80;99.90
4820;DHT22;2424;49.696;6.630;2024-01-10T22:19:15;-3.80;99.90
4820;DHT22;2424;49.696;6.630;2024-01-10T22:24:35;-3.80;99.90
4820;DHT22;2424;49.696;6.630;2024-01-10T22:29:56;-3.90;99.90
4820;DHT22;2424;49.696;6.630;2024-01-10T22:35:19;-4.00;99.90
4820;DHT22;2424;49.696;6.630;2024-01-10T22:40:40;-4.00;99.90
4820;DHT22;2424;49.696;6.630;2024-01-10T22:46:00;-4.00;99.90
4820;DHT22;2424;49.696;6.630;2024-01-10T22:51:23;-4.00;99.90
4820;DHT22;2424;49.696;6.630;2024-01-10T22:56:43;-4.10;99.90
4820;DHT22;2424;49.696;6.630;2024-01-10T23:02:04;-4.10;99.90
4820;DHT22;2424;49.696;6.630;2024-01-10T23:07:26;-4.10;99.90
4820;DHT22;2424;49.696;6.630;2024-01-10T23:12:47;-4.10;99.90
4820;DHT22;2424;49.696;6.630;2024-01-10T23:18:08;-4.20;99.90
4820;DHT22;2424;49.696;6.630;2024-01-10T23:23:29;-4.20;99.90
4820;DHT22;2424;49.696;6.630;2024-01-10T23:28:51;-4.20;99.90
4820;DHT22;2424;49.696;6.630;2024-01-10T23:34:11;-4.30;99.90
4820;DHT22;2424;49.696;6.630;2024-01-10T23:39:33;-4.30;99.90
4820;DHT22;2424;49.696;6.630;2024-01-10T23:44:54;-4.30;99.90
4820;DHT22;2424;49.696;6.630;2024-01-10T23:50:15;-4.40;99.90
4820;DHT22;2424;49.696;6.630;2024-01-10T23:55:37;-4.40;99.90
